Time;durP1;ratioP1;P1;durP2;ratioP2;P2;SDS_P1;SDS_P2;PMS_P1;PMS_P2;Temp;Humidity;BMP_temperature;BMP_pressure;BME280_temperature;BME280_humidity;BME280_pressure;Samples;Min_cycle;Max_cycle;Signal;HPM_P1;HPM_P2
2022/11/13 00:00:05;;;;;;;1.60;1.00;;;;;;;;;;4950510;29;20047;-76
2022/11/13 00:02:49;;;;;;;1.45;1.00;;;;;;;;;;4950152;29;20530;-74
2022/11/13 00:05:34;;;;;;;3.75;1.10;;;;;;;;;;4937615;29;20752;-76
2022/11/13 00:08:18;;;;;;;1.55;1.08;;;;;;;;;;4932891;29;20062;-74
2022/11/13 00:11:03;;;;;;;1.58;1.17;;;;;;;;;;4950149;29;20050;-75
2022/11/13 00:13:47;;;;;;;0.60;0.60;;;;;;;;;;4949340;28;20039;-75
2022/11/13 00:16:32;;;;;;;1.55;0.70;;;;;;;;;;4936076;29;20043;-75
2022/11/13 00:19:16;;;;;;;1.20;1.10;;;;;;;;;;4950164;29;20054;-75
2022/11/13 00:22:01;;;;;;;1.02;0.90;;;;;;;;;;4919244;29;20038;-75
2022/11/13 00:24:45;;;;;;;0.95;0.95;;;;;;;;;;4950114;29;20031;-74
2022/11/13 00:27:30;;;;;;;4.28;0.88;;;;;;;;;;4950126;29;20039;-72
2022/11/13 00:30:14;;;;;;;1.20;0.82;;;;;;;;;;4935560;29;20090;-72
2022/11/13 00:32:59;;;;;;;0.95;0.90;;;;;;;;;;4932394;29;20039;-75
2022/11/13 00:35:43;;;;;;;0.73;0.73;;;;;;;;;;4949805;29;20135;-76
2022/11/13 00:38:28;;;;;;;0.70;0.70;;;;;;;;;;4949703;29;20043;-74
2022/11/13 00:41:12;;;;;;;0.90;0.90;;;;;;;;;;4950160;29;20356;-75
2022/11/13 00:43:57;;;;;;;0.77;0.77;;;;;;;;;;4935321;29;20031;-76
2022/11/13 00:46:41;;;;;;;0.70;0.70;;;;;;;;;;4935733;29;20039;-74
2022/11/13 00:49:26;;;;;;;1.00;1.00;;;;;;;;;;4919728;29;20853;-77
2022/11/13 00:52:10;;;;;;;2.25;0.60;;;;;;;;;;4919693;29;20043;-76
2022/11/13 00:54:54;;;;;;;0.68;0.52;;;;;;;;;;4932785;29;20031;-75
2022/11/13 00:57:38;;;;;;;1.80;0.93;;;;;;;;;;4935785;29;20038;-75
2022/11/13 01:00:23;;;;;;;1.95;0.90;;;;;;;;;;4906039;28;20492;-74
2022/11/13 01:03:08;;;;;;;1.23;1.15;;;;;;;;;;4935125;29;20729;-76
2022/11/13 01:05:52;;;;;;;1.60;0.88;;;;;;;;;;4905893;29;20043;-75
2022/11/13 01:08:37;;;;;;;1.23;1.13;;;;;;;;;;4949853;29;20511;-77
2022/11/13 01:11:22;;;;;;;2.17;0.90;;;;;;;;;;4950135;29;20090;-76
2022/11/13 01:14:07;;;;;;;0.90;0.90;;;;;;;;;;4932136;29;20062;-74
2022/11/13 01:16:52;;;;;;;0.90;0.90;;;;;;;;;;4935169;29;20037;-75
2022/11/13 01:19:36;;;;;;;0.77;0.77;;;;;;;;;;4934671;29;20527;-74
2022/11/13 01:22:21;;;;;;;0.80;0.63;;;;;;;;;;4918988;29;20507;-76
2022/11/13 01:25:06;;;;;;;2.00;0.70;;;;;;;;;;4951463;28;20543;-76
2022/11/13 01:27:50;;;;;;;2.65;0.85;;;;;;;;;;4935685;29;20066;-75
2022/11/13 01:30:34;;;;;;;0.75;0.75;;;;;;;;;;4938730;29;20047;-73
2022/11/13 01:33:19;;;;;;;0.90;0.90;;;;;;;;;;4952707;29;20046;-74
2022/11/13 01:36:05;;;;;;;0.90;0.90;;;;;;;;;;4953020;29;20122;-75
2022/11/13 01:38:50;;;;;;;0.57;0.57;;;;;;;;;;4952738;29;20046;-73
2022/11/13 01:41:34;;;;;;;1.02;0.77;;;;;;;;;;4953384;29;20043;-75
2022/11/13 01:44:19;;;;;;;0.80;0.80;;;;;;;;;;4952786;29;20046;-74
2022/11/13 01:47:04;;;;;;;0.90;0.90;;;;;;;;;;4938048;29;20043;-75
2022/11/13 01:49:49;;;;;;;0.70;0.70;;;;;;;;;;4938014;29;20035;-74
2022/11/13 01:52:35;;;;;;;2.10;0.80;;;;;;;;;;4935300;29;20043;-75
2022/11/13 01:55:20;;;;;;;0.80;0.80;;;;;;;;;;4938232;29;20042;-75
2022/11/13 01:58:04;;;;;;;1.63;0.85;;;;;;;;;;4936089;29;20539;-75
2022/11/13 02:00:49;;;;;;;1.08;1.02;;;;;;;;;;4953344;28;20404;-76
2022/11/13 02:03:34;;;;;;;1.48;0.90;;;;;;;;;;4958892;29;20130;-74
2022/11/13 02:06:18;;;;;;;1.25;0.90;;;;;;;;;;4963471;29;20041;-75
2022/11/13 02:09:03;;;;;;;0.85;0.85;;;;;;;;;;4948574;29;20467;-75
2022/11/13 02:11:47;;;;;;;0.70;0.70;;;;;;;;;;4945459;29;20039;-75
2022/11/13 02:14:31;;;;;;;2.00;0.95;;;;;;;;;;4953462;29;20039;-76
2022/11/13 02:17:20;;;;;;;1.10;1.00;;;;;;;;;;4953003;29;20031;-75
2022/11/13 02:20:04;;;;;;;0.80;0.80;;;;;;;;;;4935023;29;20051;-75
2022/11/13 02:22:56;;;;;;;0.95;0.70;;;;;;;;;;4952330;29;20038;-75
2022/11/13 02:25:40;;;;;;;0.82;0.82;;;;;;;;;;4920247;29;20061;-75
2022/11/13 02:28:25;;;;;;;0.80;0.80;;;;;;;;;;4921212;29;20050;-76
2022/11/13 02:31:09;;;;;;;0.80;0.80;;;;;;;;;;4931268;29;20039;-74
2022/11/13 02:33:54;;;;;;;2.65;0.70;;;;;;;;;;4941718;29;20042;-74
2022/11/13 02:36:38;;;;;;;0.80;0.80;;;;;;;;;;4934224;29;20062;-75
2022/11/13 02:39:22;;;;;;;0.60;0.60;;;;;;;;;;4921253;29;20046;-73
2022/11/13 02:42:07;;;;;;;0.73;0.73;;;;;;;;;;4934175;29;20086;-73
2022/11/13 02:44:51;;;;;;;3.00;0.80;;;;;;;;;;4951449;29;20067;-73
2022/11/13 02:47:36;;;;;;;1.08;0.98;;;;;;;;;;4951470;29;20035;-74
2022/11/13 02:50:20;;;;;;;2.10;1.00;;;;;;;;;;4951540;29;20556;-74
2022/11/13 02:53:05;;;;;;;1.20;1.10;;;;;;;;;;4923336;29;20063;-74
2022/11/13 02:55:49;;;;;;;0.77;0.77;;;;;;;;;;4934235;29;20070;-73
2022/11/13 02:58:33;;;;;;;1.00;1.00;;;;;;;;;;4949513;29;20035;-74
2022/11/13 03:01:18;;;;;;;2.58;0.88;;;;;;;;;;4901791;29;20630;-74
2022/11/13 03:04:03;;;;;;;1.20;0.93;;;;;;;;;;4917436;29;20036;-74
2022/11/13 03:06:47;;;;;;;3.70;0.90;;;;;;;;;;4932204;29;20067;-74
2022/11/13 03:09:32;;;;;;;0.63;0.63;;;;;;;;;;4932024;29;20047;-74
2022/11/13 03:12:16;;;;;;;1.55;0.70;;;;;;;;;;4914556;29;20042;-74
2022/11/13 03:15:00;;;;;;;0.95;0.80;;;;;;;;;;4917210;29;20039;-74
2022/11/13 03:17:45;;;;;;;0.80;0.80;;;;;;;;;;4901385;29;20035;-74
2022/11/13 03:20:29;;;;;;;1.58;0.90;;;;;;;;;;4931444;29;20067;-73
2022/11/13 03:23:14;;;;;;;0.77;0.73;;;;;;;;;;4931412;29;20060;-74
2022/11/13 03:26:05;;;;;;;0.85;0.80;;;;;;;;;;4930635;29;20031;-75
2022/11/13 03:28:49;;;;;;;6.45;0.82;;;;;;;;;;4936234;29;20708;-73
2022/11/13 03:31:34;;;;;;;0.80;0.80;;;;;;;;;;4950901;29;20115;-76
2022/11/13 03:34:18;;;;;;;0.75;0.75;;;;;;;;;;4933100;29;20508;-76
2022/11/13 03:37:03;;;;;;;0.82;0.80;;;;;;;;;;4934092;29;20039;-73
2022/11/13 03:39:47;;;;;;;0.82;0.77;;;;;;;;;;4936671;29;20536;-74
2022/11/13 03:42:33;;;;;;;1.13;0.75;;;;;;;;;;4931430;29;20059;-76
2022/11/13 03:45:18;;;;;;;0.80;0.80;;;;;;;;;;4916801;29;20039;-75
2022/11/13 03:48:02;;;;;;;0.65;0.65;;;;;;;;;;4934506;29;20506;-75
2022/11/13 03:50:47;;;;;;;3.40;1.10;;;;;;;;;;4950642;29;20035;-76
2022/11/13 03:53:31;;;;;;;0.80;0.80;;;;;;;;;;4950388;29;20426;-76
2022/11/13 03:56:16;;;;;;;0.90;0.90;;;;;;;;;;4949863;29;20089;-75
2022/11/13 03:59:01;;;;;;;1.27;0.60;;;;;;;;;;4948970;29;20130;-75
2022/11/13 04:01:45;;;;;;;0.70;0.70;;;;;;;;;;4934561;29;20039;-76
2022/11/13 04:04:30;;;;;;;1.08;0.82;;;;;;;;;;4934680;29;20027;-77
2022/11/13 04:07:14;;;;;;;2.08;1.00;;;;;;;;;;4934664;29;20049;-77
2022/11/13 04:09:58;;;;;;;0.80;0.80;;;;;;;;;;4932197;29;20059;-77
2022/11/13 04:12:43;;;;;;;1.05;1.05;;;;;;;;;;4950185;29;20098;-77
2022/11/13 04:15:28;;;;;;;0.70;0.70;;;;;;;;;;4906837;29;20109;-78
2022/11/13 04:18:12;;;;;;;0.95;0.95;;;;;;;;;;4949983;29;20062;-78
2022/11/13 04:21:00;;;;;;;0.90;0.90;;;;;;;;;;4935332;29;20066;-76
2022/11/13 04:23:44;;;;;;;0.90;0.90;;;;;;;;;;4932809;29;20046;-76
2022/11/13 04:26:29;;;;;;;1.00;1.00;;;;;;;;;;4906135;29;20593;-77
2022/11/13 04:29:14;;;;;;;0.90;0.90;;;;;;;;;;4935263;29;20039;-75
2022/11/13 04:31:58;;;;;;;0.75;0.75;;;;;;;;;;4950010;29;20122;-77
2022/11/13 04:34:43;;;;;;;0.90;0.90;;;;;;;;;;4950091;29;20397;-76
2022/11/13 04:37:28;;;;;;;1.05;0.85;;;;;;;;;;4932520;29;20492;-75
2022/11/13 04:40:13;;;;;;;1.13;1.13;;;;;;;;;;4935651;29;20058;-76
2022/11/13 04:42:58;;;;;;;1.05;1.05;;;;;;;;;;4949994;29;20458;-76
2022/11/13 04:45:42;;;;;;;0.70;0.70;;;;;;;;;;4933209;29;20079;-76
2022/11/13 04:48:27;;;;;;;1.20;1.20;;;;;;;;;;4932542;29;20130;-77
2022/11/13 04:51:11;;;;;;;1.45;0.93;;;;;;;;;;4949789;29;20387;-76
2022/11/13 04:53:56;;;;;;;2.28;1.23;;;;;;;;;;4949572;29;20039;-76
2022/11/13 04:56:40;;;;;;;1.55;1.45;;;;;;;;;;4949931;29;20459;-76
2022/11/13 04:59:25;;;;;;;1.85;0.90;;;;;;;;;;4935919;29;20050;-77
2022/11/13 05:02:09;;;;;;;1.83;0.85;;;;;;;;;;4953430;28;20488;-77
2022/11/13 05:04:54;;;;;;;5.20;1.20;;;;;;;;;;4936178;29;20097;-76
2022/11/13 05:07:39;;;;;;;2.97;0.93;;;;;;;;;;4953429;29;20507;-78
2022/11/13 05:10:23;;;;;;;0.80;0.80;;;;;;;;;;4953249;29;20094;-76
2022/11/13 05:13:08;;;;;;;0.77;0.77;;;;;;;;;;4953071;29;20045;-77
2022/11/13 05:15:58;;;;;;;0.93;0.88;;;;;;;;;;4938968;29;20040;-77
2022/11/13 05:18:43;;;;;;;1.20;1.10;;;;;;;;;;4922614;29;20531;-77
2022/11/13 05:21:27;;;;;;;0.95;0.95;;;;;;;;;;4953241;29;20550;-77
2022/11/13 05:24:12;;;;;;;0.80;0.80;;;;;;;;;;4925237;29;20090;-77
2022/11/13 05:26:56;;;;;;;3.20;1.10;;;;;;;;;;4953325;29;20066;-76
2022/11/13 05:29:41;;;;;;;2.08;1.02;;;;;;;;;;4953410;29;20027;-75
2022/11/13 05:32:26;;;;;;;1.98;0.90;;;;;;;;;;4953354;29;20440;-77
2022/11/13 05:35:10;;;;;;;1.00;0.90;;;;;;;;;;4938232;29;20036;-77
2022/11/13 05:37:55;;;;;;;0.95;0.95;;;;;;;;;;4937581;29;20432;-77
2022/11/13 05:40:39;;;;;;;6.57;1.05;;;;;;;;;;4936354;29;20118;-76
2022/11/13 05:43:23;;;;;;;1.88;1.15;;;;;;;;;;4951410;29;20066;-78
2022/11/13 05:46:09;;;;;;;0.80;0.80;;;;;;;;;;4935692;29;20492;-78
2022/11/13 05:48:57;;;;;;;2.45;1.17;;;;;;;;;;4951280;29;20035;-71
2022/11/13 05:51:41;;;;;;;0.93;0.90;;;;;;;;;;4932729;28;20043;-74
2022/11/13 05:54:26;;;;;;;1.25;0.95;;;;;;;;;;4948773;29;20463;-74
2022/11/13 05:57:10;;;;;;;0.85;0.80;;;;;;;;;;4950030;29;20059;-74
2022/11/13 05:59:55;;;;;;;0.95;0.90;;;;;;;;;;4949078;29;20165;-74
2022/11/13 06:02:40;;;;;;;0.90;0.90;;;;;;;;;;4949142;29;20601;-73
2022/11/13 06:05:24;;;;;;;2.05;0.77;;;;;;;;;;4935935;29;20089;-72
2022/11/13 06:08:09;;;;;;;0.88;0.88;;;;;;;;;;4935745;29;20464;-73
2022/11/13 06:10:57;;;;;;;0.88;0.82;;;;;;;;;;4947096;28;20043;-74
2022/11/13 06:13:42;;;;;;;0.90;0.80;;;;;;;;;;4947248;29;20045;-73
2022/11/13 06:16:33;;;;;;;1.08;1.05;;;;;;;;;;4918327;29;20415;-74
2022/11/13 06:19:17;;;;;;;1.38;0.85;;;;;;;;;;4934489;29;20043;-75
2022/11/13 06:22:02;;;;;;;1.65;1.17;;;;;;;;;;4919717;29;20031;-74
2022/11/13 06:24:47;;;;;;;2.28;1.15;;;;;;;;;;4932781;29;20098;-75
2022/11/13 06:27:35;;;;;;;1.50;1.40;;;;;;;;;;4931333;29;20074;-75
2022/11/13 06:30:20;;;;;;;2.40;1.25;;;;;;;;;;4931021;29;20039;-74
2022/11/13 06:33:05;;;;;;;1.50;1.40;;;;;;;;;;4897065;29;20155;-74
2022/11/13 06:35:49;;;;;;;1.20;1.10;;;;;;;;;;4949948;29;20039;-74
2022/11/13 06:38:37;;;;;;;1.73;1.20;;;;;;;;;;4935752;29;20042;-74
2022/11/13 06:41:22;;;;;;;1.05;1.05;;;;;;;;;;4935087;29;20039;-74
2022/11/13 06:44:07;;;;;;;1.13;1.00;;;;;;;;;;4949237;29;20467;-73
2022/11/13 06:46:51;;;;;;;1.65;1.45;;;;;;;;;;4949742;29;20122;-73
2022/11/13 06:49:36;;;;;;;1.65;1.08;;;;;;;;;;4927182;29;20039;-73
2022/11/13 06:52:20;;;;;;;3.17;1.80;;;;;;;;;;4948245;29;20035;-73
2022/11/13 06:55:05;;;;;;;1.65;1.35;;;;;;;;;;4927191;29;20075;-74
2022/11/13 06:57:50;;;;;;;1.67;1.20;;;;;;;;;;4951249;29;20071;-74
2022/11/13 07:00:34;;;;;;;3.65;1.80;;;;;;;;;;4929923;28;20297;-74
2022/11/13 07:03:20;;;;;;;1.50;1.40;;;;;;;;;;4959480;29;20034;-74
2022/11/13 07:06:05;;;;;;;1.33;1.23;;;;;;;;;;4954362;29;20065;-73
2022/11/13 07:08:50;;;;;;;4.68;1.23;;;;;;;;;;4932474;29;20038;-74
2022/11/13 07:11:35;;;;;;;1.30;1.23;;;;;;;;;;4948485;29;20067;-74
2022/11/13 07:14:19;;;;;;;1.58;1.20;;;;;;;;;;4948268;29;20035;-75
2022/11/13 07:17:04;;;;;;;1.80;1.27;;;;;;;;;;4934548;29;20047;-73
2022/11/13 07:19:49;;;;;;;0.80;0.80;;;;;;;;;;4945489;29;20062;-74
2022/11/13 07:22:33;;;;;;;1.55;1.45;;;;;;;;;;4945821;28;20704;-73
2022/11/13 07:25:17;;;;;;;1.80;1.10;;;;;;;;;;4946628;29;20129;-74
2022/11/13 07:28:02;;;;;;;1.30;1.20;;;;;;;;;;4948963;29;20488;-74
2022/11/13 07:30:46;;;;;;;0.90;0.90;;;;;;;;;;4946893;29;20034;-75
2022/11/13 07:33:31;;;;;;;1.77;1.30;;;;;;;;;;4948056;29;20035;-74
2022/11/13 07:36:15;;;;;;;1.58;1.20;;;;;;;;;;4946721;29;20058;-74
2022/11/13 07:39:00;;;;;;;1.10;1.10;;;;;;;;;;4947035;29;20043;-74
2022/11/13 07:41:44;;;;;;;2.13;1.30;;;;;;;;;;4945873;29;20054;-74
2022/11/13 07:44:28;;;;;;;2.28;1.00;;;;;;;;;;4920930;29;20122;-73
2022/11/13 07:47:13;;;;;;;1.00;0.90;;;;;;;;;;4934066;29;20035;-73
2022/11/13 07:49:57;;;;;;;1.48;1.17;;;;;;;;;;4948581;29;20031;-73
2022/11/13 07:52:42;;;;;;;1.95;1.27;;;;;;;;;;4948517;29;20043;-75
2022/11/13 07:55:26;;;;;;;3.42;1.50;;;;;;;;;;4946644;29;20035;-75
2022/11/13 07:58:11;;;;;;;2.20;1.10;;;;;;;;;;4945703;29;20451;-75
2022/11/13 08:00:59;;;;;;;1.27;1.27;;;;;;;;;;4948651;28;20062;-75
2022/11/13 08:03:44;;;;;;;3.53;1.10;;;;;;;;;;4932011;29;20547;-74
2022/11/13 08:06:28;;;;;;;1.48;1.33;;;;;;;;;;4947687;29;20042;-74
2022/11/13 08:09:13;;;;;;;4.28;1.45;;;;;;;;;;4932053;29;20043;-73
2022/11/13 08:11:57;;;;;;;1.58;1.00;;;;;;;;;;4946792;28;20578;-75
2022/11/13 08:14:41;;;;;;;1.25;0.90;;;;;;;;;;4945731;29;20039;-75
2022/11/13 08:17:26;;;;;;;1.15;1.05;;;;;;;;;;4917028;29;20175;-75
2022/11/13 08:20:11;;;;;;;1.23;0.90;;;;;;;;;;4947957;29;20055;-76
2022/11/13 08:22:56;;;;;;;1.00;1.00;;;;;;;;;;4943736;29;20042;-75
2022/11/13 08:25:40;;;;;;;1.60;1.00;;;;;;;;;;4946869;29;20043;-74
2022/11/13 08:28:25;;;;;;;1.00;0.82;;;;;;;;;;4931733;29;20035;-75
2022/11/13 08:31:10;;;;;;;5.03;1.27;;;;;;;;;;4943620;29;20058;-77
2022/11/13 08:33:55;;;;;;;2.40;1.10;;;;;;;;;;4943970;28;20039;-77
2022/11/13 08:36:39;;;;;;;6.05;1.40;;;;;;;;;;4932667;29;20106;-75
2022/11/13 08:39:23;;;;;;;3.22;1.55;;;;;;;;;;4947788;29;20539;-75
2022/11/13 08:42:08;;;;;;;1.65;1.25;;;;;;;;;;4948370;29;20035;-76
2022/11/13 08:44:52;;;;;;;3.05;1.45;;;;;;;;;;4948597;29;20039;-74
2022/11/13 08:47:37;;;;;;;3.08;1.17;;;;;;;;;;4931364;29;20035;-73
2022/11/13 08:50:21;;;;;;;1.40;0.90;;;;;;;;;;4933035;29;20048;-74
2022/11/13 08:53:06;;;;;;;1.67;1.05;;;;;;;;;;4949730;29;20031;-74
2022/11/13 08:55:50;;;;;;;1.48;1.08;;;;;;;;;;4949275;29;20039;-74
2022/11/13 08:58:35;;;;;;;1.50;1.25;;;;;;;;;;4949676;29;20471;-74
2022/11/13 09:01:22;;;;;;;1.73;1.17;;;;;;;;;;4949532;28;20508;-74
2022/11/13 09:04:06;;;;;;;0.88;0.88;;;;;;;;;;4941393;29;20137;-73
2022/11/13 09:06:51;;;;;;;1.20;1.20;;;;;;;;;;4930305;29;20066;-72
2022/11/13 09:09:36;;;;;;;3.35;1.00;;;;;;;;;;4950069;29;20043;-74
2022/11/13 09:12:21;;;;;;;0.93;0.93;;;;;;;;;;4949380;29;20122;-74
2022/11/13 09:15:06;;;;;;;1.63;0.98;;;;;;;;;;4946266;28;20042;-73
2022/11/13 09:17:55;;;;;;;1.50;1.00;;;;;;;;;;4928193;28;20039;-73
2022/11/13 09:20:39;;;;;;;2.00;0.80;;;;;;;;;;4947712;28;20059;-74
2022/11/13 09:23:23;;;;;;;1.15;1.05;;;;;;;;;;4944090;29;20027;-74
2022/11/13 09:26:08;;;;;;;2.70;1.13;;;;;;;;;;4947562;29;20048;-74
2022/11/13 09:28:53;;;;;;;1.73;1.33;;;;;;;;;;4945508;29;20034;-74
2022/11/13 09:31:39;;;;;;;1.17;1.08;;;;;;;;;;4929708;29;20435;-73
2022/11/13 09:34:24;;;;;;;0.90;0.90;;;;;;;;;;4947413;29;20023;-74
2022/11/13 09:37:09;;;;;;;1.20;1.10;;;;;;;;;;4942613;29;20478;-75
2022/11/13 09:39:53;;;;;;;2.35;0.98;;;;;;;;;;4945766;29;20043;-74
2022/11/13 09:42:38;;;;;;;2.80;0.93;;;;;;;;;;4939461;29;20043;-74
2022/11/13 09:45:22;;;;;;;0.93;0.93;;;;;;;;;;4947610;28;20046;-73
2022/11/13 09:48:19;;;;;;;4.03;1.30;;;;;;;;;;4943608;28;20043;-73
2022/11/13 09:51:14;;;;;;;2.15;1.17;;;;;;;;;;4951355;28;20049;-73
2022/11/13 09:53:58;;;;;;;4.45;2.13;;;;;;;;;;4923477;28;20042;-73
2022/11/13 09:56:45;;;;;;;3.78;1.42;;;;;;;;;;4935248;29;20042;-74
2022/11/13 09:59:56;;;;;;;1.02;1.02;;;;;;;;;;4937497;29;20053;-73
2022/11/13 10:02:49;;;;;;;2.05;1.33;;;;;;;;;;4951909;28;20490;-73
2022/11/13 10:05:33;;;;;;;1.90;1.60;;;;;;;;;;4951931;28;20574;-73
2022/11/13 10:08:28;;;;;;;1.88;1.27;;;;;;;;;;4934630;29;20519;-73
2022/11/13 10:11:18;;;;;;;1.55;1.15;;;;;;;;;;4951999;29;20424;-73
2022/11/13 10:14:19;;;;;;;1.30;1.20;;;;;;;;;;4940809;29;20042;-74
2022/11/13 10:17:04;;;;;;;1.20;1.13;;;;;;;;;;4954352;28;20123;-74
2022/11/13 10:19:54;;;;;;;1.30;1.20;;;;;;;;;;4938618;29;20047;-73
2022/11/13 10:22:40;;;;;;;2.33;1.10;;;;;;;;;;4935408;28;20094;-73
2022/11/13 10:25:26;;;;;;;1.90;0.90;;;;;;;;;;4961100;28;20094;-74
2022/11/13 10:28:16;;;;;;;0.85;0.80;;;;;;;;;;4950140;29;20121;-74
2022/11/13 10:31:00;;;;;;;0.90;0.90;;;;;;;;;;4947928;29;20389;-74
2022/11/13 10:33:44;;;;;;;0.93;0.93;;;;;;;;;;4934613;29;20031;-74
2022/11/13 10:36:32;;;;;;;2.83;0.90;;;;;;;;;;4948045;29;20105;-74
2022/11/13 10:39:16;;;;;;;1.10;1.10;;;;;;;;;;4939799;29;20475;-74
2022/11/13 10:42:01;;;;;;;1.08;1.08;;;;;;;;;;4950858;29;20035;-74
2022/11/13 10:44:53;;;;;;;1.10;1.10;;;;;;;;;;4948825;29;20475;-74
2022/11/13 10:47:42;;;;;;;4.30;1.48;;;;;;;;;;4935820;29;20027;-73
2022/11/13 10:50:27;;;;;;;0.90;0.90;;;;;;;;;;4948675;29;20031;-78
2022/11/13 10:53:13;;;;;;;2.45;0.90;;;;;;;;;;4932235;29;20511;-74
2022/11/13 10:55:58;;;;;;;1.77;1.08;;;;;;;;;;4935859;29;20034;-74
2022/11/13 10:58:42;;;;;;;1.02;1.02;;;;;;;;;;4932787;29;20090;-74
2022/11/13 11:01:27;;;;;;;1.70;1.00;;;;;;;;;;4948282;28;20125;-74
2022/11/13 11:04:22;;;;;;;3.08;1.30;;;;;;;;;;4948771;29;20548;-79
2022/11/13 11:07:20;;;;;;;2.35;1.00;;;;;;;;;;4951184;29;20035;-75
2022/11/13 11:10:19;;;;;;;1.00;1.00;;;;;;;;;;4950807;29;20420;-75
2022/11/13 11:13:10;;;;;;;1.30;1.30;;;;;;;;;;4950672;28;20035;-74
2022/11/13 11:15:55;;;;;;;;;;;;;;;;;;4949751;29;20472;-74
2022/11/13 11:18:47;;;;;;;5.35;1.75;;;;;;;;;;4933570;29;20350;-75
2022/11/13 11:21:33;;;;;;;0.90;0.90;;;;;;;;;;4933539;29;20051;-74
2022/11/13 11:24:20;;;;;;;1.23;1.23;;;;;;;;;;4922600;29;20046;-75
2022/11/13 11:27:13;;;;;;;1.10;1.10;;;;;;;;;;4936426;29;20538;-73
2022/11/13 11:30:03;;;;;;;1.40;1.30;;;;;;;;;;4920526;29;20035;-73
2022/11/13 11:33:00;;;;;;;1.50;1.13;;;;;;;;;;4937464;29;20043;-75
2022/11/13 11:35:44;;;;;;;1.85;1.10;;;;;;;;;;4950978;29;20027;-75
2022/11/13 11:38:30;;;;;;;1.20;1.20;;;;;;;;;;4950852;29;20042;-75
2022/11/13 11:41:15;;;;;;;2.50;1.60;;;;;;;;;;4919806;29;20074;-75
2022/11/13 11:44:19;;;;;;;3.05;1.08;;;;;;;;;;4935560;29;20031;-75
2022/11/13 11:47:04;;;;;;;2.63;1.20;;;;;;;;;;4948613;29;20045;-76
2022/11/13 11:49:48;;;;;;;3.22;1.13;;;;;;;;;;4950665;29;20031;-77
2022/11/13 11:52:36;;;;;;;2.17;1.15;;;;;;;;;;4933272;29;20619;-76
2022/11/13 11:55:26;;;;;;;1.05;0.95;;;;;;;;;;4950887;29;20517;-76
2022/11/13 11:58:23;;;;;;;1.35;1.25;;;;;;;;;;4960515;29;20126;-77
2022/11/13 12:01:33;;;;;;;1.10;1.10;;;;;;;;;;4964054;28;20074;-76
2022/11/13 12:04:20;;;;;;;1.20;1.05;;;;;;;;;;4959887;29;20542;-75
2022/11/13 12:07:14;;;;;;;0.95;0.95;;;;;;;;;;4946692;29;20031;-76
2022/11/13 12:10:21;;;;;;;12.45;1.20;;;;;;;;;;4948991;28;20130;-75
2022/11/13 12:13:05;;;;;;;1.10;1.05;;;;;;;;;;4932524;29;20035;-75
2022/11/13 12:15:53;;;;;;;3.05;1.42;;;;;;;;;;4948553;29;20031;-75
2022/11/13 12:18:37;;;;;;;1.13;1.13;;;;;;;;;;4949079;29;20035;-75
2022/11/13 12:21:22;;;;;;;1.35;1.25;;;;;;;;;;4931663;29;20067;-75
2022/11/13 12:24:06;;;;;;;1.50;1.40;;;;;;;;;;4947240;29;20185;-75
2022/11/13 12:26:54;;;;;;;1.40;1.30;;;;;;;;;;4946783;29;20476;-75
2022/11/13 12:29:43;;;;;;;1.08;1.08;;;;;;;;;;4945325;29;20027;-75
2022/11/13 12:32:52;;;;;;;3.17;1.40;;;;;;;;;;4952460;28;20554;-75
2022/11/13 12:35:36;;;;;;;1.38;1.27;;;;;;;;;;4911562;29;20504;-75
2022/11/13 12:38:25;;;;;;;4.05;1.20;;;;;;;;;;4949083;29;20042;-75
2022/11/13 12:41:18;;;;;;;2.10;1.20;;;;;;;;;;4946356;29;20066;-75
2022/11/13 12:44:09;;;;;;;2.25;1.30;;;;;;;;;;4947251;29;20046;-75
2022/11/13 12:46:54;;;;;;;1.58;1.20;;;;;;;;;;4930934;29;20031;-75
2022/11/13 12:49:39;;;;;;;1.33;1.30;;;;;;;;;;4944156;29;20050;-75
2022/11/13 12:52:23;;;;;;;1.48;0.80;;;;;;;;;;4948915;29;20039;-75
2022/11/13 12:55:23;;;;;;;1.50;1.40;;;;;;;;;;4933272;29;20508;-76
2022/11/13 12:58:09;;;;;;;;;;;;;;;;;;4930756;29;20027;-76
2022/11/13 13:00:55;;;;;;;1.30;1.30;;;;;;;;;;4949429;28;19922;-75
2022/11/13 13:03:40;;;;;;;1.48;1.15;;;;;;;;;;4948566;29;20439;-75
2022/11/13 13:06:28;;;;;;;1.52;1.42;;;;;;;;;;4947368;29;20039;-75
2022/11/13 13:09:25;;;;;;;1.50;1.40;;;;;;;;;;4947687;29;20035;-75
2022/11/13 13:12:18;;;;;;;7.63;1.70;;;;;;;;;;4947263;29;20031;-76
2022/11/13 13:15:23;;;;;;;1.55;1.45;;;;;;;;;;4951922;29;20463;-75
2022/11/13 13:18:08;;;;;;;1.42;1.33;;;;;;;;;;4941971;29;20035;-74
2022/11/13 13:21:10;;;;;;;1.30;1.30;;;;;;;;;;4951874;28;20057;-75
2022/11/13 13:23:55;;;;;;;1.23;1.23;;;;;;;;;;4963474;28;20046;-75
2022/11/13 13:26:43;;;;;;;1.50;1.40;;;;;;;;;;4961817;28;20039;-75
2022/11/13 13:29:28;;;;;;;1.30;1.20;;;;;;;;;;4956570;29;20043;-75
2022/11/13 13:32:17;;;;;;;1.45;1.35;;;;;;;;;;4955612;29;20478;-76
2022/11/13 13:35:04;;;;;;;1.50;1.40;;;;;;;;;;4942768;29;20046;-75
2022/11/13 13:37:51;;;;;;;1.27;1.17;;;;;;;;;;4960759;28;20028;-76
2022/11/13 13:40:54;;;;;;;1.67;1.58;;;;;;;;;;4962538;28;20043;-75
2022/11/13 13:43:42;;;;;;;2.78;1.48;;;;;;;;;;4955696;29;20019;-75
2022/11/13 13:46:28;;;;;;;1.30;1.30;;;;;;;;;;4952800;29;20042;-75
2022/11/13 13:49:15;;;;;;;1.17;1.17;;;;;;;;;;4949518;29;20043;-75
2022/11/13 13:51:59;;;;;;;1.20;1.20;;;;;;;;;;4935070;29;20106;-76
2022/11/13 13:54:44;;;;;;;1.42;1.17;;;;;;;;;;4949440;29;20096;-77
2022/11/13 13:57:29;;;;;;;1.70;1.60;;;;;;;;;;4950337;29;20031;-77
2022/11/13 14:00:16;;;;;;;1.20;1.20;;;;;;;;;;4951950;29;20047;-77
2022/11/13 14:03:01;;;;;;;1.42;1.42;;;;;;;;;;4953013;29;20039;-76
2022/11/13 14:05:45;;;;;;;1.10;1.10;;;;;;;;;;4937789;29;20043;-76
2022/11/13 14:08:29;;;;;;;1.75;1.65;;;;;;;;;;4934590;29;20027;-76
2022/11/13 14:11:18;;;;;;;3.55;1.30;;;;;;;;;;4952823;29;20035;-76
2022/11/13 14:14:07;;;;;;;1.67;1.58;;;;;;;;;;4953423;29;20043;-75
2022/11/13 14:16:52;;;;;;;1.70;1.50;;;;;;;;;;4936211;29;20039;-76
2022/11/13 14:19:37;;;;;;;1.42;1.33;;;;;;;;;;4950121;29;20308;-75
2022/11/13 14:22:22;;;;;;;1.35;1.35;;;;;;;;;;4950139;29;20075;-74
2022/11/13 14:25:11;;;;;;;2.50;1.27;;;;;;;;;;4939384;29;20167;-75
2022/11/13 14:27:55;;;;;;;1.88;1.77;;;;;;;;;;4958675;28;20046;-75
2022/11/13 14:30:40;;;;;;;1.88;1.77;;;;;;;;;;4951941;29;20049;-78
2022/11/13 14:33:30;;;;;;;1.17;1.17;;;;;;;;;;4957174;28;20050;-76
2022/11/13 14:36:15;;;;;;;1.40;1.40;;;;;;;;;;4938869;29;20046;-76
2022/11/13 14:38:59;;;;;;;5.68;1.50;;;;;;;;;;4961716;28;20035;-77
2022/11/13 14:41:52;;;;;;;1.52;1.42;;;;;;;;;;4970909;29;20517;-77
2022/11/13 14:44:37;;;;;;;1.20;1.20;;;;;;;;;;4958112;29;20084;-77
2022/11/13 14:47:23;;;;;;;1.40;1.30;;;;;;;;;;4955900;29;20020;-77
2022/11/13 14:50:16;;;;;;;1.50;1.40;;;;;;;;;;4951289;29;20028;-76
2022/11/13 14:53:02;;;;;;;2.80;1.48;;;;;;;;;;4966146;29;20043;-77
2022/11/13 14:55:51;;;;;;;1.50;1.40;;;;;;;;;;4956412;29;20058;-78
2022/11/13 14:58:42;;;;;;;1.67;1.58;;;;;;;;;;4931076;29;20035;-77
2022/11/13 15:01:27;;;;;;;1.15;1.15;;;;;;;;;;4944120;29;20538;-77
2022/11/13 15:04:12;;;;;;;2.03;1.42;;;;;;;;;;4918011;29;20520;-78
2022/11/13 15:06:57;;;;;;;1.38;1.38;;;;;;;;;;4950226;29;20093;-78
2022/11/13 15:09:42;;;;;;;1.30;1.30;;;;;;;;;;4934551;29;20043;-76
2022/11/13 15:12:28;;;;;;;2.08;1.30;;;;;;;;;;4951271;29;20689;-76
2022/11/13 15:15:13;;;;;;;1.52;1.42;;;;;;;;;;4948966;29;20039;-77
2022/11/13 15:17:57;;;;;;;1.55;1.45;;;;;;;;;;4954582;29;20545;-76
2022/11/13 15:20:43;;;;;;;1.60;1.50;;;;;;;;;;4951313;28;20052;-76
2022/11/13 15:23:27;;;;;;;1.20;1.20;;;;;;;;;;4936811;28;20057;-76
2022/11/13 15:26:13;;;;;;;1.10;1.10;;;;;;;;;;4950425;28;20085;-75
2022/11/13 15:28:58;;;;;;;1.38;1.27;;;;;;;;;;4944811;28;20121;-76
2022/11/13 15:31:43;;;;;;;1.70;1.63;;;;;;;;;;4935275;28;20428;-74
2022/11/13 15:34:27;;;;;;;2.28;1.60;;;;;;;;;;4926720;28;20565;-74
2022/11/13 15:37:12;;;;;;;1.75;1.30;;;;;;;;;;4946142;28;20043;-75
2022/11/13 15:39:57;;;;;;;1.42;1.40;;;;;;;;;;4948374;29;20048;-74
2022/11/13 15:42:42;;;;;;;1.75;1.60;;;;;;;;;;4944073;28;20027;-74
2022/11/13 15:45:27;;;;;;;1.40;1.38;;;;;;;;;;4945758;28;20117;-75
2022/11/13 15:48:12;;;;;;;1.83;1.70;;;;;;;;;;4932437;28;20046;-75
2022/11/13 15:50:56;;;;;;;1.63;1.52;;;;;;;;;;4947004;28;20027;-75
2022/11/13 15:53:42;;;;;;;5.25;1.15;;;;;;;;;;4946006;29;20751;-74
2022/11/13 15:56:27;;;;;;;2.38;1.17;;;;;;;;;;4943983;29;20043;-74
2022/11/13 15:59:12;;;;;;;1.60;1.50;;;;;;;;;;4933974;29;20043;-73
2022/11/13 16:01:56;;;;;;;1.50;1.40;;;;;;;;;;4946961;28;20098;-75
2022/11/13 16:04:41;;;;;;;1.77;1.67;;;;;;;;;;4943676;28;20035;-74
2022/11/13 16:07:26;;;;;;;1.60;1.50;;;;;;;;;;4926960;28;20098;-73
2022/11/13 16:10:10;;;;;;;1.40;1.30;;;;;;;;;;4914417;29;20130;-75
2022/11/13 16:12:55;;;;;;;1.50;1.40;;;;;;;;;;4940720;28;20042;-74
2022/11/13 16:15:39;;;;;;;1.40;1.30;;;;;;;;;;4942950;28;20058;-74
2022/11/13 16:18:25;;;;;;;1.25;1.25;;;;;;;;;;4947086;29;20456;-74
2022/11/13 16:21:10;;;;;;;2.10;1.25;;;;;;;;;;4919807;29;20063;-74
2022/11/13 16:23:55;;;;;;;1.42;1.17;;;;;;;;;;4931481;29;20035;-76
2022/11/13 16:26:40;;;;;;;1.38;1.38;;;;;;;;;;4946844;29;20426;-75
2022/11/13 16:29:25;;;;;;;1.15;1.15;;;;;;;;;;4926884;28;20419;-75
2022/11/13 16:32:13;;;;;;;1.10;1.10;;;;;;;;;;4945185;28;20035;-75
2022/11/13 16:34:58;;;;;;;1.60;1.50;;;;;;;;;;4945731;29;20042;-75